createdAt,value
2018-12-18T00:00:46.388Z,-915.76
2018-12-18T00:01:46.469Z,-909.26
2018-12-18T00:02:46.570Z,-915.18
2018-12-18T00:03:46.740Z,-912.50
2018-12-18T00:04:46.764Z,-912.29
2018-12-18T00:05:46.833Z,-907.89
2018-12-18T00:06:46.906Z,-915.45
2018-12-18T00:07:46.960Z,-915.33
2018-12-18T00:08:47.136Z,-909.55
2018-12-18T00:09:47.126Z,-908.06
2018-12-18T00:10:47.214Z,-910.61
2018-12-18T00:11:47.279Z,-913.91
2018-12-18T00:12:47.490Z,-911.62
2018-12-18T00:13:47.481Z,-912.73
2018-12-18T00:14:47.538Z,-917.93
2018-12-18T00:15:47.593Z,-915.49
2018-12-18T00:16:47.671Z,-914.85
2018-12-18T00:17:47.763Z,-919.31
2018-12-18T00:18:47.847Z,-912.58
2018-12-18T00:19:47.963Z,-913.24
2018-12-18T00:20:48.075Z,-916.80
2018-12-18T00:21:48.053Z,-917.88
2018-12-18T00:22:48.187Z,-920.51
2018-12-18T00:23:48.248Z,-915.53
2018-12-18T00:24:48.321Z,-912.95
2018-12-18T00:25:48.392Z,-912.89
2018-12-18T00:26:48.453Z,-915.46
2018-12-18T00:27:48.576Z,-914.93
2018-12-18T00:28:48.663Z,-921.32
2018-12-18T00:29:48.734Z,-912.10
2018-12-18T00:30:48.770Z,-916.49
2018-12-18T00:31:48.836Z,-916.62
2018-12-18T00:32:48.902Z,-911.97
2018-12-18T00:33:49.009Z,-915.89
2018-12-18T00:34:49.088Z,-916.06
2018-12-18T00:35:49.139Z,-969.70
2018-12-18T00:36:49.275Z,-968.46
2018-12-18T00:37:49.321Z,-968.72
2018-12-18T00:38:49.395Z,-966.32
2018-12-18T00:39:49.521Z,-967.20
2018-12-18T00:40:49.587Z,-965.03
2018-12-18T00:41:49.666Z,-968.43
2018-12-18T00:42:49.729Z,-965.07
2018-12-18T00:43:49.810Z,-969.93
2018-12-18T00:44:49.930Z,-966.74
2018-12-18T00:45:50.061Z,-964.41
2018-12-18T00:46:50.072Z,-968.16
2018-12-18T00:47:50.113Z,-964.33
2018-12-18T00:48:55.830Z,-964.88
2018-12-18T00:49:50.282Z,-963.47
2018-12-18T00:50:50.340Z,-964.86
2018-12-18T00:51:50.456Z,-966.40
2018-12-18T00:52:50.513Z,-968.37
2018-12-18T00:53:50.725Z,-967.24
2018-12-18T00:54:50.714Z,-964.69
2018-12-18T00:55:50.733Z,-960.92
2018-12-18T00:56:50.830Z,-966.65
2018-12-18T00:57:50.904Z,-970.84
2018-12-18T00:58:51.000Z,-966.27
2018-12-18T00:59:51.082Z,-966.89
2018-12-18T01:00:51.120Z,-964.50
2018-12-18T01:01:51.319Z,-967.09
2018-12-18T01:02:51.295Z,-969.30
2018-12-18T01:03:52.978Z,-971.35
2018-12-18T01:04:51.462Z,-969.05
2018-12-18T01:05:51.527Z,-962.13
2018-12-18T01:06:51.628Z,-963.64
2018-12-18T01:07:53.425Z,-961.79
2018-12-18T01:08:51.793Z,-961.96
2018-12-18T01:09:51.926Z,-963.35
2018-12-18T01:10:52.156Z,-961.74
2018-12-18T01:11:51.982Z,-963.33
2018-12-18T01:12:52.040Z,-964.09
2018-12-18T01:13:52.139Z,-957.38
2018-12-18T01:14:52.226Z,-966.66
2018-12-18T01:15:52.317Z,-963.02
2018-12-18T01:16:52.390Z,-967.32
2018-12-18T01:17:52.481Z,-965.23
2018-12-18T01:18:52.545Z,-962.12
2018-12-18T01:19:52.603Z,-963.46
2018-12-18T01:20:52.739Z,-964.30
2018-12-18T01:21:52.775Z,-963.02
2018-12-18T01:22:52.835Z,-966.39
2018-12-18T01:23:52.934Z,-967.33
2018-12-18T01:24:52.997Z,-964.17
2018-12-18T01:25:53.143Z,-960.89
2018-12-18T01:26:53.305Z,-960.10
2018-12-18T01:27:53.232Z,-961.08
2018-12-18T01:28:53.320Z,-962.30
2018-12-18T01:29:53.398Z,-959.88
2018-12-18T01:30:53.518Z,-965.78
2018-12-18T01:31:53.575Z,-963.65
2018-12-18T01:32:53.620Z,-963.35
2018-12-18T01:33:59.119Z,-963.31
2018-12-18T01:34:54.912Z,-960.74
2018-12-18T01:35:53.860Z,-967.70
2018-12-18T01:36:53.971Z,-965.10
2018-12-18T01:37:54.032Z,-966.24
2018-12-18T01:38:54.141Z,-964.82
2018-12-18T01:39:54.173Z,-963.89
2018-12-18T01:40:54.254Z,-965.70
2018-12-18T01:41:54.343Z,-965.70
2018-12-18T01:42:54.468Z,-965.12
2018-12-18T01:43:54.526Z,-961.47
2018-12-18T01:44:54.548Z,-966.59
2018-12-18T01:45:54.630Z,-965.16
2018-12-18T01:46:54.726Z,-965.23
2018-12-18T01:47:54.800Z,-958.15
2018-12-18T01:48:54.920Z,-962.40
2018-12-18T01:49:54.967Z,-967.71
2018-12-18T01:50:55.133Z,-964.26
2018-12-18T01:51:55.121Z,-965.36
2018-12-18T01:52:55.174Z,-959.64
2018-12-18T01:53:55.252Z,-963.98
2018-12-18T01:54:55.360Z,-965.69
2018-12-18T01:55:55.494Z,-964.62
2018-12-18T01:56:55.509Z,-963.33
2018-12-18T01:57:55.587Z,-958.72
2018-12-18T01:58:55.760Z,-958.70
2018-12-18T01:59:55.830Z,-962.24
2018-12-18T02:00:55.879Z,-960.85
2018-12-18T02:01:55.894Z,-958.81
2018-12-18T02:02:55.971Z,-958.45
2018-12-18T02:03:56.051Z,-962.55
2018-12-18T02:04:56.149Z,-962.56
2018-12-18T02:05:56.224Z,-963.02
2018-12-18T02:06:56.344Z,-966.84
2018-12-18T02:07:56.487Z,-962.08
2018-12-18T02:08:56.459Z,-961.74
2018-12-18T02:09:56.531Z,-962.14
2018-12-18T02:10:56.585Z,-963.40
2018-12-18T02:11:56.687Z,-961.61
2018-12-18T02:12:56.722Z,-960.18
2018-12-18T02:13:56.823Z,-959.69
2018-12-18T02:14:56.921Z,-961.07
2018-12-18T02:15:57.077Z,-966.09
2018-12-18T02:16:57.071Z,-962.00
2018-12-18T02:17:57.111Z,-959.99
2018-12-18T02:18:57.205Z,-964.55
2018-12-18T02:19:57.291Z,-965.29
2018-12-18T02:20:57.359Z,-965.62
2018-12-18T02:21:57.482Z,-962.01
2018-12-18T02:22:57.523Z,-957.45
2018-12-18T02:23:57.685Z,-967.05
2018-12-18T02:24:57.673Z,-959.80
2018-12-18T02:25:57.739Z,-963.71
2018-12-18T02:26:57.836Z,-963.93
2018-12-18T02:27:57.893Z,-959.66
2018-12-18T02:28:58.053Z,-962.89
2018-12-18T02:29:58.051Z,-963.49
2018-12-18T02:30:58.129Z,-962.75
2018-12-18T02:31:58.269Z,-959.96
2018-12-18T02:32:58.257Z,-958.74
2018-12-18T02:33:58.356Z,-958.04
2018-12-18T02:34:58.431Z,-961.95
2018-12-18T02:35:58.484Z,-958.75
2018-12-18T02:36:58.612Z,-961.18
2018-12-18T02:37:58.662Z,-957.39
2018-12-18T02:38:58.734Z,-963.35
2018-12-18T02:39:58.875Z,-962.68
2018-12-18T02:40:58.980Z,-961.45
2018-12-18T02:41:59.036Z,-959.92
2018-12-18T02:42:59.087Z,-961.73
2018-12-18T02:43:59.162Z,-958.34
2018-12-18T02:44:59.261Z,-962.16
2018-12-18T02:45:59.320Z,-960.54
2018-12-18T02:46:59.392Z,-961.00
2018-12-18T02:47:59.476Z,-960.80
2018-12-18T02:48:59.941Z,-960.41
2018-12-18T02:49:59.648Z,-960.98
2018-12-18T02:50:59.701Z,-909.00
2018-12-18T02:51:59.771Z,-961.77
2018-12-18T02:52:59.879Z,-963.10
2018-12-18T02:53:59.954Z,-961.07
2018-12-18T02:55:00.063Z,-959.59
2018-12-18T02:56:00.118Z,-960.47
2018-12-18T02:57:00.309Z,-961.88
2018-12-18T02:58:00.274Z,-961.36
2018-12-18T02:59:00.379Z,-962.27
2018-12-18T03:00:00.454Z,-959.39
2018-12-18T03:01:00.511Z,-959.36
2018-12-18T03:02:00.589Z,-962.99
2018-12-18T03:03:00.667Z,-961.34
2018-12-18T03:04:00.775Z,-957.27
2018-12-18T03:05:00.884Z,-957.09
2018-12-18T03:06:00.897Z,-961.25
2018-12-18T03:07:00.984Z,-959.20
2018-12-18T03:08:01.086Z,-961.54
2018-12-18T03:09:01.146Z,-956.91
2018-12-18T03:10:01.231Z,-964.94
2018-12-18T03:11:01.292Z,-960.94
2018-12-18T03:12:01.371Z,-959.08
2018-12-18T03:13:01.514Z,-959.62
2018-12-18T03:14:01.583Z,-957.84
2018-12-18T03:15:01.661Z,-963.50
2018-12-18T03:16:01.732Z,-961.48
2018-12-18T03:17:01.812Z,-954.98
2018-12-18T03:18:01.905Z,-961.83
2018-12-18T03:19:01.994Z,-956.72
2018-12-18T03:20:02.062Z,-953.84
2018-12-18T03:21:02.126Z,-955.54
2018-12-18T03:22:02.338Z,-956.20
2018-12-18T03:23:02.291Z,-960.93
2018-12-18T03:24:02.369Z,-952.98
2018-12-18T03:25:02.430Z,-961.41
2018-12-18T03:26:02.488Z,-961.25
2018-12-18T03:27:02.592Z,-956.90
2018-12-18T03:28:02.681Z,-962.11
2018-12-18T03:29:02.732Z,-963.31
2018-12-18T03:30:03.140Z,-955.12
2018-12-18T03:31:02.887Z,-955.98
2018-12-18T03:32:02.996Z,-958.06
2018-12-18T03:33:03.064Z,-962.57
2018-12-18T03:34:03.153Z,-956.11
2018-12-18T03:35:03.224Z,-957.94
2018-12-18T03:36:03.259Z,-959.28
2018-12-18T03:37:03.358Z,-959.57
2018-12-18T03:38:03.500Z,-958.22
2018-12-18T03:39:03.538Z,-956.97
2018-12-18T03:40:03.608Z,-960.89
2018-12-18T03:41:03.670Z,-960.63
2018-12-18T03:42:03.736Z,-957.71
2018-12-18T03:43:03.840Z,-955.99
2018-12-18T03:44:03.951Z,-961.08
2018-12-18T03:45:03.994Z,-949.35
2018-12-18T03:46:04.126Z,-946.56
2018-12-18T03:47:04.093Z,-945.60
2018-12-18T03:48:04.204Z,-953.38
2018-12-18T03:49:04.789Z,-952.02
2018-12-18T03:50:04.386Z,-962.99
2018-12-18T03:51:04.440Z,-958.42
2018-12-18T03:52:04.510Z,-955.56
2018-12-18T03:53:04.613Z,-957.44
2018-12-18T03:54:04.706Z,-956.97
2018-12-18T03:55:04.816Z,-958.38
2018-12-18T03:56:04.819Z,-960.48
2018-12-18T03:57:04.895Z,-960.56
2018-12-18T03:58:04.990Z,-962.88
2018-12-18T03:59:05.057Z,-959.25
2018-12-18T04:00:05.140Z,-959.47
2018-12-18T04:01:05.224Z,-962.73
2018-12-18T04:02:05.288Z,-956.09
2018-12-18T04:03:05.460Z,-960.30
2018-12-18T04:04:05.459Z,-962.75
2018-12-18T04:05:05.522Z,-960.70
2018-12-18T04:06:05.601Z,-957.94
2018-12-18T04:07:05.676Z,-961.18
2018-12-18T04:08:05.772Z,-960.56
2018-12-18T04:09:05.858Z,-959.72
2018-12-18T04:10:05.891Z,-961.44
2018-12-18T04:11:06.102Z,-956.45
2018-12-18T04:12:06.069Z,-961.24
2018-12-18T04:13:06.169Z,-960.88
2018-12-18T04:14:06.323Z,-958.46
2018-12-18T04:15:06.286Z,-960.28
2018-12-18T04:16:06.404Z,-956.39
2018-12-18T04:17:06.470Z,-952.34
2018-12-18T04:18:06.549Z,-957.75
2018-12-18T04:19:06.648Z,-960.55
2018-12-18T04:20:06.651Z,-907.29
2018-12-18T04:21:06.752Z,-909.25
2018-12-18T04:22:06.827Z,-904.04
2018-12-18T04:23:06.947Z,-907.15
2018-12-18T04:24:07.005Z,-902.26
2018-12-18T04:25:07.057Z,-904.07
2018-12-18T04:26:07.374Z,-907.77
2018-12-18T04:27:07.220Z,-909.20
2018-12-18T04:28:07.308Z,-905.04
2018-12-18T04:29:07.399Z,-902.00
2018-12-18T04:30:07.460Z,-904.23
2018-12-18T04:31:07.554Z,-899.49
2018-12-18T04:32:07.609Z,-911.75
2018-12-18T04:33:07.689Z,-903.75
2018-12-18T04:34:07.775Z,-907.88
2018-12-18T04:35:07.860Z,-906.95
2018-12-18T04:36:08.030Z,-908.80
2018-12-18T04:37:07.980Z,-907.26
2018-12-18T04:38:08.084Z,-905.13
2018-12-18T04:39:08.150Z,-907.94
2018-12-18T04:40:08.222Z,-907.98
2018-12-18T04:41:08.318Z,-906.92
2018-12-18T04:42:08.383Z,-905.57
2018-12-18T04:43:08.511Z,-903.43
2018-12-18T04:44:08.595Z,-901.51
2018-12-18T04:45:08.597Z,-901.50
2018-12-18T04:46:08.700Z,-903.86
2018-12-18T04:47:08.758Z,-907.69
2018-12-18T04:48:08.853Z,-909.38
2018-12-18T04:49:08.923Z,-906.86
2018-12-18T04:50:08.980Z,-911.03
2018-12-18T04:51:09.085Z,-904.27
2018-12-18T04:52:09.222Z,-901.76
2018-12-18T04:53:09.221Z,-908.21
2018-12-18T04:54:09.297Z,-904.37
2018-12-18T04:55:09.375Z,-908.92
2018-12-18T04:56:09.456Z,-901.72
2018-12-18T04:57:09.517Z,-897.57
2018-12-18T04:58:09.601Z,-900.41
2018-12-18T04:59:09.694Z,-901.42
2018-12-18T05:00:09.785Z,-900.40
2018-12-18T05:01:09.822Z,-898.24
2018-12-18T05:02:09.887Z,-896.07
2018-12-18T05:03:09.979Z,-902.41
2018-12-18T05:04:10.056Z,-902.88
2018-12-18T05:05:10.108Z,-897.79
2018-12-18T05:06:10.200Z,-906.84
2018-12-18T05:07:10.273Z,-909.54
2018-12-18T05:08:10.399Z,-899.69
2018-12-18T05:09:10.520Z,-902.61
2018-12-18T05:10:10.526Z,-899.80
2018-12-18T05:11:10.608Z,-898.29
2018-12-18T05:12:10.681Z,-899.69
2018-12-18T05:13:10.769Z,-899.40
2018-12-18T05:14:10.893Z,-902.50
2018-12-18T05:15:10.942Z,-901.37
2018-12-18T05:16:11.049Z,-846.32
2018-12-18T05:17:11.200Z,-856.20
2018-12-18T05:18:11.171Z,-852.05
2018-12-18T05:19:11.292Z,-869.67
2018-12-18T05:20:12.545Z,-875.56
2018-12-18T05:21:11.434Z,-892.09
2018-12-18T05:22:11.477Z,-898.30
2018-12-18T05:23:11.565Z,-893.69
2018-12-18T05:24:11.699Z,-890.78
2018-12-18T05:25:11.880Z,-887.05
2018-12-18T05:26:11.836Z,-894.28
2018-12-18T05:27:11.881Z,-902.78
2018-12-18T05:28:11.974Z,-897.02
2018-12-18T05:29:12.090Z,-894.66
2018-12-18T05:30:12.126Z,-890.80
2018-12-18T05:31:12.216Z,-886.34
2018-12-18T05:32:12.287Z,-890.31
2018-12-18T05:33:12.389Z,-893.67
2018-12-18T05:34:12.447Z,-888.64
2018-12-18T05:35:12.501Z,-892.19
2018-12-18T05:36:12.588Z,-893.75
2018-12-18T05:37:12.647Z,-894.14
2018-12-18T05:38:12.723Z,-893.84
2018-12-18T05:39:12.832Z,-892.69
2018-12-18T05:40:12.879Z,-893.44
2018-12-18T05:41:13.047Z,-900.02
2018-12-18T05:42:13.019Z,-899.81
2018-12-18T05:43:13.107Z,-899.54
2018-12-18T05:44:13.228Z,-893.95
2018-12-18T05:45:13.254Z,-892.44
2018-12-18T05:46:13.355Z,-893.36
2018-12-18T05:47:13.424Z,-889.47
2018-12-18T05:48:13.502Z,-889.16
2018-12-18T05:49:13.625Z,-867.13
2018-12-18T05:50:13.721Z,-865.75
2018-12-18T05:51:13.736Z,-866.82
2018-12-18T05:52:13.808Z,-874.26
2018-12-18T05:53:13.887Z,-881.49
2018-12-18T05:54:13.977Z,-887.55
2018-12-18T05:55:14.047Z,-894.20
2018-12-18T05:56:14.116Z,-889.88
2018-12-18T05:57:14.204Z,-878.84
2018-12-18T05:58:14.384Z,-886.02
2018-12-18T05:59:14.367Z,-893.38
2018-12-18T06:00:14.436Z,-889.79
2018-12-18T06:01:14.515Z,-892.95
2018-12-18T06:02:14.592Z,-898.67
2018-12-18T06:03:14.676Z,-894.89
2018-12-18T06:04:14.795Z,-893.00
2018-12-18T06:05:15.059Z,-896.03
2018-12-18T06:06:15.006Z,-895.61
2018-12-18T06:07:14.962Z,-892.71
2018-12-18T06:08:15.058Z,-898.53
2018-12-18T06:09:15.156Z,-895.42
2018-12-18T06:10:15.210Z,-896.31
2018-12-18T06:11:15.295Z,-896.59
2018-12-18T06:12:15.342Z,-894.26
2018-12-18T06:13:15.431Z,-900.31
2018-12-18T06:14:15.576Z,-899.36
2018-12-18T06:15:15.593Z,-900.34
2018-12-18T06:16:15.677Z,-896.88
2018-12-18T06:17:15.747Z,-897.65
2018-12-18T06:18:15.808Z,-895.03
2018-12-18T06:19:15.922Z,-895.43
2018-12-18T06:20:15.980Z,-896.74
2018-12-18T06:21:16.050Z,-894.65
2018-12-18T06:22:16.177Z,-894.60
2018-12-18T06:23:16.209Z,-887.05
2018-12-18T06:24:16.321Z,-862.76
2018-12-18T06:25:16.743Z,-872.28
2018-12-18T06:26:16.475Z,-874.21
2018-12-18T06:27:16.567Z,-894.07
2018-12-18T06:28:16.626Z,-888.27
2018-12-18T06:29:16.739Z,-886.70
2018-12-18T06:30:16.811Z,-883.86
2018-12-18T06:31:16.947Z,-892.90
2018-12-18T06:32:16.960Z,-896.09
2018-12-18T06:33:17.026Z,-881.98
2018-12-18T06:34:17.105Z,-885.01
2018-12-18T06:35:17.215Z,-886.14
2018-12-18T06:36:17.274Z,-885.37
2018-12-18T06:37:17.370Z,-886.65
2018-12-18T06:38:17.501Z,-891.02
2018-12-18T06:39:17.633Z,-887.14
2018-12-18T06:40:17.600Z,-889.91
2018-12-18T06:41:17.670Z,-888.75
2018-12-18T06:42:17.769Z,-885.94
2018-12-18T06:43:17.831Z,-876.60
2018-12-18T06:44:17.917Z,-884.55
2018-12-18T06:45:17.994Z,-886.99
2018-12-18T06:46:18.060Z,-893.22
2018-12-18T06:47:18.240Z,-893.01
2018-12-18T06:48:18.214Z,-886.04
2018-12-18T06:49:18.315Z,-893.08
2018-12-18T06:50:18.382Z,-901.66
2018-12-18T06:51:18.434Z,-890.80
2018-12-18T06:52:18.542Z,-891.84
2018-12-18T06:53:18.603Z,-891.66
2018-12-18T06:54:18.698Z,-899.01
2018-12-18T06:55:18.809Z,-888.61
2018-12-18T06:56:18.802Z,-875.41
2018-12-18T06:57:18.914Z,-868.02
2018-12-18T06:58:18.989Z,-883.71
2018-12-18T06:59:19.083Z,-880.28
2018-12-18T07:00:19.151Z,-889.13
2018-12-18T07:01:19.233Z,-887.49
2018-12-18T07:02:19.316Z,-894.44
2018-12-18T07:03:19.424Z,-885.93
2018-12-18T07:04:19.501Z,-891.70
2018-12-18T07:05:19.527Z,-887.99
2018-12-18T07:06:19.605Z,-890.02
2018-12-18T07:07:19.697Z,-891.09
2018-12-18T07:08:19.741Z,-899.58
2018-12-18T07:09:19.852Z,-890.86
2018-12-18T07:10:19.912Z,-898.73
2018-12-18T07:11:20.005Z,-898.97
2018-12-18T07:12:20.215Z,-899.01
2018-12-18T07:13:20.128Z,-898.71
2018-12-18T07:14:20.234Z,-901.79
2018-12-18T07:15:20.295Z,-894.89
2018-12-18T07:16:20.389Z,-892.79
2018-12-18T07:17:20.462Z,-896.06
2018-12-18T07:18:20.519Z,-879.84
2018-12-18T07:19:20.587Z,-878.94
2018-12-18T07:20:20.828Z,-853.59
2018-12-18T07:21:20.751Z,-883.66
2018-12-18T07:22:20.846Z,-883.10
2018-12-18T07:23:20.904Z,-882.64
2018-12-18T07:24:20.968Z,-887.05
2018-12-18T07:25:21.102Z,-880.10
2018-12-18T07:26:21.153Z,-876.32
2018-12-18T07:27:21.247Z,-878.91
2018-12-18T07:28:21.335Z,-886.10
2018-12-18T07:29:21.352Z,-887.74
2018-12-18T07:30:21.476Z,-886.89
2018-12-18T07:31:21.564Z,-879.45
2018-12-18T07:32:21.655Z,-883.16
2018-12-18T07:33:21.714Z,-886.80
2018-12-18T07:34:21.791Z,-885.72
2018-12-18T07:35:23.392Z,-861.78
2018-12-18T07:36:22.022Z,-885.12
2018-12-18T07:37:22.022Z,-874.43
2018-12-18T07:38:22.082Z,-878.33
2018-12-18T07:39:22.166Z,-883.64
2018-12-18T07:40:22.270Z,-885.92
2018-12-18T07:41:22.313Z,-892.10
2018-12-18T07:42:22.400Z,-887.00
2018-12-18T07:43:22.474Z,-885.38
2018-12-18T07:44:22.789Z,-884.77
2018-12-18T07:45:22.785Z,-891.80
2018-12-18T07:46:22.698Z,-886.20
2018-12-18T07:47:22.837Z,-896.53
2018-12-18T07:48:22.856Z,-888.79
2018-12-18T07:49:22.940Z,-887.49
2018-12-18T07:50:23.037Z,-892.46
2018-12-18T07:51:23.098Z,-890.49
2018-12-18T07:52:23.187Z,-896.22
2018-12-18T07:53:23.339Z,-888.69
2018-12-18T07:54:23.312Z,-889.09
2018-12-18T07:55:23.404Z,-884.00
2018-12-18T07:56:23.478Z,-890.33
2018-12-18T07:57:23.565Z,-883.94
2018-12-18T07:58:23.618Z,-892.99
2018-12-18T07:59:23.707Z,-887.70
2018-12-18T08:00:23.799Z,-894.92
2018-12-18T08:01:23.946Z,-896.84
2018-12-18T08:02:23.942Z,-894.18
2018-12-18T08:03:23.993Z,-889.21
2018-12-18T08:04:24.087Z,-892.30
2018-12-18T08:05:29.687Z,-887.92
2018-12-18T08:06:25.250Z,-893.57
2018-12-18T08:07:24.335Z,-893.02
2018-12-18T08:08:24.406Z,-891.19
2018-12-18T08:09:24.501Z,-889.32
2018-12-18T08:10:24.548Z,-885.22
2018-12-18T08:11:24.629Z,-888.88
2018-12-18T08:12:24.786Z,-899.39
2018-12-18T08:13:24.769Z,-894.90
2018-12-18T08:14:24.848Z,-892.46
2018-12-18T08:15:24.916Z,-885.89
2018-12-18T08:16:25.012Z,-877.76
2018-12-18T08:17:25.149Z,-891.53
2018-12-18T08:18:25.219Z,-881.38
2018-12-18T08:19:25.262Z,-892.35
2018-12-18T08:20:25.345Z,-889.69
2018-12-18T08:21:25.432Z,-892.33
2018-12-18T08:22:25.496Z,-890.35
2018-12-18T08:23:25.572Z,-892.34
2018-12-18T08:24:25.651Z,-895.93
2018-12-18T08:25:25.821Z,-894.46
2018-12-18T08:26:25.884Z,-889.28
2018-12-18T08:27:25.884Z,-897.81
2018-12-18T08:28:26.024Z,-892.37
2018-12-18T08:29:26.059Z,-901.22
2018-12-18T08:30:26.157Z,-893.97
2018-12-18T08:31:26.201Z,-898.63
2018-12-18T08:32:26.292Z,-903.85
2018-12-18T08:33:26.378Z,-895.47
2018-12-18T08:34:26.594Z,-897.97
2018-12-18T08:35:26.579Z,-899.08
2018-12-18T08:36:26.624Z,-883.49
2018-12-18T08:37:26.697Z,-887.77
2018-12-18T08:38:26.785Z,-893.16
2018-12-18T08:39:26.850Z,-898.21
2018-12-18T08:40:26.972Z,-899.72
2018-12-18T08:41:27.006Z,-892.43
2018-12-18T08:42:27.112Z,-894.78
2018-12-18T08:43:27.159Z,-896.26
2018-12-18T08:44:27.225Z,-892.43
2018-12-18T08:45:27.336Z,-892.48
2018-12-18T08:46:27.381Z,-896.96
2018-12-18T08:47:27.467Z,-890.16
2018-12-18T08:48:27.536Z,-895.95
2018-12-18T08:49:27.613Z,-900.13
2018-12-18T08:50:27.811Z,-897.07
2018-12-18T08:51:27.747Z,-900.07
2018-12-18T08:52:27.852Z,-896.98
2018-12-18T08:53:27.923Z,-897.78
2018-12-18T08:54:27.978Z,-895.95
2018-12-18T08:55:28.115Z,-874.96
2018-12-18T08:56:28.149Z,-891.86
2018-12-18T08:57:28.226Z,-896.65
2018-12-18T08:58:28.361Z,-896.16
2018-12-18T08:59:28.417Z,-892.55
2018-12-18T09:00:28.496Z,-899.85
2018-12-18T09:01:28.519Z,-893.64
2018-12-18T09:02:28.596Z,-893.13
2018-12-18T09:03:28.697Z,-897.27
2018-12-18T09:04:28.756Z,-894.39
2018-12-18T09:05:28.861Z,-897.76
2018-12-18T09:06:28.920Z,-895.30
2018-12-18T09:07:29.093Z,-900.39
2018-12-18T09:08:29.086Z,-895.69
2018-12-18T09:09:29.126Z,-898.21
2018-12-18T09:10:29.224Z,-897.05
2018-12-18T09:11:29.293Z,-894.26
2018-12-18T09:12:29.381Z,-896.51
2018-12-18T09:13:29.473Z,-894.73
2018-12-18T09:14:29.526Z,-895.57
2018-12-18T09:15:29.807Z,-892.32
2018-12-18T09:16:29.695Z,-896.16
2018-12-18T09:17:29.782Z,-900.19
2018-12-18T09:18:29.850Z,-899.38
2018-12-18T09:19:29.910Z,-894.67
2018-12-18T09:20:30.258Z,-892.37
2018-12-18T09:21:30.046Z,-885.21
2018-12-18T09:22:30.142Z,-892.57
2018-12-18T09:23:30.318Z,-890.48
2018-12-18T09:24:30.293Z,-891.78
2018-12-18T09:25:30.403Z,-894.76
2018-12-18T09:26:30.457Z,-892.59
2018-12-18T09:27:30.532Z,-881.11
2018-12-18T09:28:30.629Z,-885.07
2018-12-18T09:29:30.698Z,-886.17
2018-12-18T09:30:30.775Z,-891.90
2018-12-18T09:31:30.905Z,-948.06
2018-12-18T09:32:30.948Z,-944.87
2018-12-18T09:33:31.013Z,-947.21
2018-12-18T09:34:31.092Z,-948.34
2018-12-18T09:35:31.173Z,-923.71
2018-12-18T09:36:31.260Z,-928.95
2018-12-18T09:37:31.347Z,-940.57
2018-12-18T09:38:31.433Z,-945.32
2018-12-18T09:39:31.495Z,-943.80
2018-12-18T09:40:31.620Z,-950.15
2018-12-18T09:41:31.661Z,-963.16
2018-12-18T09:42:31.743Z,-958.39
2018-12-18T09:43:31.816Z,-959.78
2018-12-18T09:44:31.861Z,-956.74
2018-12-18T09:45:31.963Z,-952.04
2018-12-18T09:46:32.046Z,-953.98
2018-12-18T09:47:32.132Z,-956.05
2018-12-18T09:48:32.335Z,-952.48
2018-12-18T09:49:32.274Z,-955.19
2018-12-18T09:50:32.394Z,-945.86
2018-12-18T09:51:32.465Z,-946.31
2018-12-18T09:52:32.531Z,-950.29
2018-12-18T09:53:32.634Z,-943.50
2018-12-18T09:54:32.685Z,-941.94
2018-12-18T09:55:32.773Z,-931.50
2018-12-18T09:56:32.966Z,-930.07
2018-12-18T09:57:32.905Z,-884.42
2018-12-18T09:58:33.001Z,-896.53
2018-12-18T09:59:33.088Z,-903.48
2018-12-18T10:00:33.127Z,-899.98
2018-12-18T10:01:33.220Z,-899.29
2018-12-18T10:02:33.322Z,-904.95
2018-12-18T10:03:33.622Z,-897.80
2018-12-18T10:04:33.501Z,-895.05
2018-12-18T10:05:33.507Z,-890.84
2018-12-18T10:06:33.602Z,-895.15
2018-12-18T10:07:33.924Z,-893.50
2018-12-18T10:08:33.786Z,-895.94
2018-12-18T10:09:33.822Z,-893.72
2018-12-18T10:10:33.903Z,-901.43
2018-12-18T10:11:34.006Z,-897.04
2018-12-18T10:12:34.098Z,-899.88
2018-12-18T10:13:34.221Z,-901.06
2018-12-18T10:14:34.233Z,-898.76
2018-12-18T10:15:34.302Z,-874.13
2018-12-18T10:16:34.402Z,-863.93
2018-12-18T10:17:34.534Z,-885.07
2018-12-18T10:18:34.565Z,-895.86
2018-12-18T10:19:34.617Z,-896.88
2018-12-18T10:20:34.705Z,-894.78
2018-12-18T10:21:34.917Z,-897.68
2018-12-18T10:22:34.833Z,-897.20
2018-12-18T10:23:34.961Z,-895.62
2018-12-18T10:24:35.007Z,-887.58
2018-12-18T10:25:35.079Z,-880.01
2018-12-18T10:26:35.177Z,-893.32
2018-12-18T10:27:35.227Z,-893.12
2018-12-18T10:28:35.328Z,-894.57
2018-12-18T10:29:35.505Z,-891.95
2018-12-18T10:30:35.459Z,-892.27
2018-12-18T10:31:35.562Z,-892.95
2018-12-18T10:32:35.620Z,-882.93
2018-12-18T10:33:35.713Z,-902.36
2018-12-18T10:34:35.758Z,-890.73
2018-12-18T10:35:36.734Z,-896.17
2018-12-18T10:36:35.949Z,-890.59
2018-12-18T10:37:36.060Z,-895.37
2018-12-18T10:38:36.074Z,-949.51
2018-12-18T10:39:36.150Z,-945.62
2018-12-18T10:40:36.231Z,-943.97
2018-12-18T10:41:36.337Z,-943.86
2018-12-18T10:42:36.397Z,-941.74
2018-12-18T10:43:36.482Z,-944.39
2018-12-18T10:44:36.568Z,-943.88
2018-12-18T10:45:36.668Z,-944.76
2018-12-18T10:46:36.716Z,-940.93
2018-12-18T10:47:36.800Z,-943.22
2018-12-18T10:48:36.906Z,-939.73
2018-12-18T10:49:36.996Z,-938.92
2018-12-18T10:50:37.042Z,-940.33
2018-12-18T10:51:37.137Z,-946.42
2018-12-18T10:52:37.180Z,-949.21
2018-12-18T10:53:37.343Z,-940.63
2018-12-18T10:54:37.443Z,-947.68
2018-12-18T10:55:37.423Z,-922.34
2018-12-18T10:56:37.526Z,-931.26
2018-12-18T10:57:37.570Z,-943.36
2018-12-18T10:58:37.916Z,-949.86
2018-12-18T10:59:37.756Z,-945.69
2018-12-18T11:00:37.814Z,-945.43
2018-12-18T11:01:37.915Z,-950.93
2018-12-18T11:02:38.113Z,-948.23
2018-12-18T11:03:38.054Z,-946.92
2018-12-18T11:04:38.138Z,-950.46
2018-12-18T11:05:38.192Z,-945.32
2018-12-18T11:06:38.287Z,-944.01
2018-12-18T11:07:38.340Z,-949.99
2018-12-18T11:08:38.441Z,-944.57
2018-12-18T11:09:38.535Z,-942.62
2018-12-18T11:10:38.692Z,-944.98
2018-12-18T11:11:38.671Z,-948.54
2018-12-18T11:12:38.803Z,-943.52
2018-12-18T11:13:38.804Z,-942.00
2018-12-18T11:14:38.905Z,-943.32
2018-12-18T11:15:38.968Z,-932.74
2018-12-18T11:16:39.060Z,-929.76
2018-12-18T11:17:39.120Z,-931.75
2018-12-18T11:18:39.255Z,-943.30
2018-12-18T11:19:39.254Z,-943.43
2018-12-18T11:20:39.338Z,-942.41
2018-12-18T11:21:39.435Z,-940.59
2018-12-18T11:22:39.497Z,-937.69
2018-12-18T11:23:39.592Z,-940.84
2018-12-18T11:24:39.668Z,-947.01
2018-12-18T11:25:39.706Z,-944.12
2018-12-18T11:26:39.891Z,-944.13
2018-12-18T11:27:39.881Z,-942.78
2018-12-18T11:28:39.995Z,-942.49
2018-12-18T11:29:40.066Z,-944.40
2018-12-18T11:30:40.127Z,-942.95
2018-12-18T11:31:40.209Z,-941.03
2018-12-18T11:32:40.280Z,-951.90
2018-12-18T11:33:40.385Z,-944.62
2018-12-18T11:34:40.471Z,-948.25
2018-12-18T11:35:40.627Z,-946.50
2018-12-18T11:36:40.576Z,-931.99
2018-12-18T11:37:40.658Z,-933.10
2018-12-18T11:38:40.772Z,-935.85
2018-12-18T11:39:40.844Z,-939.94
2018-12-18T11:40:40.906Z,-941.24
2018-12-18T11:41:40.974Z,-934.89
2018-12-18T11:42:41.040Z,-938.22
2018-12-18T11:43:41.278Z,-937.76
2018-12-18T11:44:41.444Z,-938.76
2018-12-18T11:45:41.279Z,-945.31
2018-12-18T11:46:41.340Z,-946.66
2018-12-18T11:47:41.443Z,-945.39
2018-12-18T11:48:41.565Z,-942.68
2018-12-18T11:49:41.626Z,-935.55
2018-12-18T11:50:41.695Z,-935.32
2018-12-18T11:51:41.823Z,-939.35
2018-12-18T11:52:41.837Z,-943.43
2018-12-18T11:53:41.929Z,-945.05
2018-12-18T11:54:42.019Z,-939.79
2018-12-18T11:55:42.069Z,-942.06
2018-12-18T11:56:42.146Z,-935.18
2018-12-18T11:57:42.242Z,-936.47
2018-12-18T11:58:42.306Z,-935.55
2018-12-18T11:59:42.652Z,-939.82
2018-12-18T12:00:42.443Z,-937.17
2018-12-18T12:01:42.521Z,-939.63
2018-12-18T12:02:42.945Z,-935.12
2018-12-18T12:03:42.675Z,-931.33
2018-12-18T12:04:42.775Z,-938.46
2018-12-18T12:05:42.826Z,-937.51
2018-12-18T12:06:42.916Z,-937.83